sensor_id;sensor_type;location;lat;lon;timestamp;pressure;altitude;pressure_sealevel;temperature;humidity
78123;BME280;67376;44.802;10.332;2023-04-24T00:00:30;100100.75;;;20.02;47.64
78123;BME280;67376;44.802;10.332;2023-04-24T00:02:56;100103.47;;;20.02;48.46
78123;BME280;67376;44.802;10.332;2023-04-24T00:05:23;100093.44;;;20.03;48.41
78123;BME280;67376;44.802;10.332;2023-04-24T00:07:49;100099.94;;;20.02;48.07
78123;BME280;67376;44.802;10.332;2023-04-24T00:10:18;100112.41;;;20.03;48.09
78123;BME280;67376;44.802;10.332;2023-04-24T00:12:43;100109.72;;;20.03;48.18
78123;BME280;67376;44.802;10.332;2023-04-24T00:15:09;100115.13;;;20.03;47.40
78123;BME280;67376;44.802;10.332;2023-04-24T00:17:35;100120.53;;;20.03;47.95
78123;BME280;67376;44.802;10.332;2023-04-24T00:20:00;100136.81;;;20.03;48.22
78123;BME280;67376;44.802;10.332;2023-04-24T00:22:29;100142.47;;;20.01;48.27
78123;BME280;67376;44.802;10.332;2023-04-24T00:24:55;100154.94;;;20.02;48.36
78123;BME280;67376;44.802;10.332;2023-04-24T00:27:20;100157.66;;;20.02;48.36
78123;BME280;67376;44.802;10.332;2023-04-24T00:29:46;100146.81;;;20.02;47.39
78123;BME280;67376;44.802;10.332;2023-04-24T00:32:11;100128.91;;;20.01;48.29
78123;BME280;67376;44.802;10.332;2023-04-24T00:34:37;100109.94;;;20.01;47.26
78123;BME280;67376;44.802;10.332;2023-04-24T00:37:02;100107.25;;;20.01;48.06
78123;BME280;67376;44.802;10.332;2023-04-24T00:39:28;100109.94;;;20.01;47.73
78123;BME280;67376;44.802;10.332;2023-04-24T00:41:53;100111.84;;;20.01;47.39
78123;BME280;67376;44.802;10.332;2023-04-24T00:44:19;100117.25;;;20.01;48.11
78123;BME280;67376;44.802;10.332;2023-04-24T00:46:45;100113.47;;;20.02;47.91
78123;BME280;67376;44.802;10.332;2023-04-24T00:49:11;100099.94;;;20.02;47.40
78123;BME280;67376;44.802;10.332;2023-04-24T00:51:37;100093.69;;;20.01;47.78
78123;BME280;67376;44.802;10.332;2023-04-24T00:54:02;100088.28;;;20.01;47.60
78123;BME280;67376;44.802;10.332;2023-04-24T00:56:28;100089.91;;;20.02;48.27
78123;BME280;67376;44.802;10.332;2023-04-24T00:58:53;100097.22;;;20.02;48.23
78123;BME280;67376;44.802;10.332;2023-04-24T01:01:20;100100.75;;;20.02;48.71
78123;BME280;67376;44.802;10.332;2023-04-24T01:03:46;100097.22;;;20.02;48.38
78123;BME280;67376;44.802;10.332;2023-04-24T01:06:12;100098.03;;;20.02;48.87
78123;BME280;67376;44.802;10.332;2023-04-24T01:08:38;100099.94;;;20.02;49.08
78123;BME280;67376;44.802;10.332;2023-04-24T01:11:05;100085.31;;;20.03;48.98
78123;BME280;67376;44.802;10.332;2023-04-24T01:13:32;100083.94;;;20.00;48.18
78123;BME280;67376;44.802;10.332;2023-04-24T01:15:57;100076.38;;;20.02;48.83
78123;BME280;67376;44.802;10.332;2023-04-24T01:18:23;100069.31;;;20.01;48.20
78123;BME280;67376;44.802;10.332;2023-04-24T01:20:50;100081.78;;;20.02;49.02
78123;BME280;67376;44.802;10.332;2023-04-24T01:23:18;100078.25;;;20.02;48.75
78123;BME280;67376;44.802;10.332;2023-04-24T01:25:44;100072.84;;;20.02;48.90
78123;BME280;67376;44.802;10.332;2023-04-24T01:28:09;100063.88;;;20.01;48.76
78123;BME280;67376;44.802;10.332;2023-04-24T01:30:35;100067.41;;;20.02;49.24
78123;BME280;67376;44.802;10.332;2023-04-24T01:33:01;100072.84;;;20.02;48.64
78123;BME280;67376;44.802;10.332;2023-04-24T01:35:26;100081.78;;;20.02;49.47
78123;BME280;67376;44.802;10.332;2023-04-24T01:37:52;100085.56;;;20.01;49.49
78123;BME280;67376;44.802;10.332;2023-04-24T01:40:17;100081.78;;;20.02;49.16
78123;BME280;67376;44.802;10.332;2023-04-24T01:42:42;100082.84;;;20.01;48.82
78123;BME280;67376;44.802;10.332;2023-04-24T01:45:10;100075.53;;;20.02;48.89
78123;BME280;67376;44.802;10.332;2023-04-24T01:47:36;100068.25;;;20.02;49.77
78123;BME280;67376;44.802;10.332;2023-04-24T01:50:02;100060.09;;;20.02;48.87
78123;BME280;67376;44.802;10.332;2023-04-24T01:52:27;100050.34;;;20.01;49.44
78123;BME280;67376;44.802;10.332;2023-04-24T01:54:56;100042.47;;;20.00;49.66
78123;BME280;67376;44.802;10.332;2023-04-24T01:57:22;100049.53;;;20.01;49.59
78123;BME280;67376;44.802;10.332;2023-04-24T01:59:47;100046.81;;;20.01;49.12
78123;BME280;67376;44.802;10.332;2023-04-24T02:02:13;100043.28;;;20.00;48.87
78123;BME280;67376;44.802;10.332;2023-04-24T02:04:39;100048.69;;;20.00;49.27
78123;BME280;67376;44.802;10.332;2023-04-24T02:07:04;100054.94;;;20.01;49.79
78123;BME280;67376;44.802;10.332;2023-04-24T02:09:30;100046.81;;;20.01;49.05
78123;BME280;67376;44.802;10.332;2023-04-24T02:11:55;100052.22;;;20.01;49.54
78123;BME280;67376;44.802;10.332;2023-04-24T02:14:21;100060.34;;;20.01;48.80
78123;BME280;67376;44.802;10.332;2023-04-24T02:16:46;100055.75;;;20.01;49.81
78123;BME280;67376;44.802;10.332;2023-04-24T02:19:12;100068.50;;;20.01;49.39
78123;BME280;67376;44.802;10.332;2023-04-24T02:21:37;100084.75;;;20.01;48.95
78123;BME280;67376;44.802;10.332;2023-04-24T02:24:03;100073.91;;;20.01;50.03
78123;BME280;67376;44.802;10.332;2023-04-24T02:26:28;100071.19;;;20.01;49.77
78123;BME280;67376;44.802;10.332;2023-04-24T02:28:54;100079.31;;;20.01;49.99
78123;BME280;67376;44.802;10.332;2023-04-24T02:31:19;100058.97;;;19.98;49.56
78123;BME280;67376;44.802;10.332;2023-04-24T02:33:45;100063.88;;;20.01;48.96
78123;BME280;67376;44.802;10.332;2023-04-24T02:36:10;100072.28;;;20.00;49.25
78123;BME280;67376;44.802;10.332;2023-04-24T02:38:35;100061.19;;;20.01;49.02
78123;BME280;67376;44.802;10.332;2023-04-24T02:41:01;100077.44;;;20.01;49.52
78123;BME280;67376;44.802;10.332;2023-04-24T02:43:27;100085.81;;;20.00;49.14
78123;BME280;67376;44.802;10.332;2023-04-24T02:45:53;100085.81;;;20.00;49.85
78123;BME280;67376;44.802;10.332;2023-04-24T02:48:18;100094.75;;;20.00;48.76
78123;BME280;67376;44.802;10.332;2023-04-24T02:50:45;100086.63;;;20.00;49.00
78123;BME280;67376;44.802;10.332;2023-04-24T02:53:11;100098.28;;;20.01;49.81
78123;BME280;67376;44.802;10.332;2023-04-24T02:55:36;100093.94;;;20.00;49.09
78123;BME280;67376;44.802;10.332;2023-04-24T02:58:01;100091.22;;;20.00;49.70
78123;BME280;67376;44.802;10.332;2023-04-24T03:00:27;100083.09;;;20.00;49.63
78123;BME280;67376;44.802;10.332;2023-04-24T03:02:52;100074.16;;;19.99;49.42
78123;BME280;67376;44.802;10.332;2023-04-24T03:05:18;100062.50;;;19.99;49.09
78123;BME280;67376;44.802;10.332;2023-04-24T03:07:43;100061.69;;;19.98;49.80
78123;BME280;67376;44.802;10.332;2023-04-24T03:10:09;100065.22;;;19.99;49.68
78123;BME280;67376;44.802;10.332;2023-04-24T03:12:34;100072.50;;;19.98;49.32
78123;BME280;67376;44.802;10.332;2023-04-24T03:15:00;100079.56;;;19.99;49.09
78123;BME280;67376;44.802;10.332;2023-04-24T03:17:25;100089.34;;;20.00;49.80
78123;BME280;67376;44.802;10.332;2023-04-24T03:19:50;100088.78;;;19.98;49.80
78123;BME280;67376;44.802;10.332;2023-04-24T03:22:16;100083.34;;;19.98;49.31
78123;BME280;67376;44.802;10.332;2023-04-24T03:24:41;100090.41;;;19.99;49.57
78123;BME280;67376;44.802;10.332;2023-04-24T03:27:07;100081.72;;;19.97;49.47
78123;BME280;67376;44.802;10.332;2023-04-24T03:29:32;100086.88;;;19.99;49.16
78123;BME280;67376;44.802;10.332;2023-04-24T03:31:57;100094.19;;;19.98;49.16
78123;BME280;67376;44.802;10.332;2023-04-24T03:34:23;100096.91;;;19.98;50.06
78123;BME280;67376;44.802;10.332;2023-04-24T03:36:48;100099.59;;;19.98;49.71
78123;BME280;67376;44.802;10.332;2023-04-24T03:39:13;100111.28;;;19.99;50.03
78123;BME280;67376;44.802;10.332;2023-04-24T03:41:39;100106.66;;;19.99;49.71
78123;BME280;67376;44.802;10.332;2023-04-24T03:44:04;100104.22;;;19.98;49.71
78123;BME280;67376;44.802;10.332;2023-04-24T03:46:30;100096.09;;;19.98;49.19
78123;BME280;67376;44.802;10.332;2023-04-24T03:48:56;100096.91;;;19.98;49.53
78123;BME280;67376;44.802;10.332;2023-04-24T03:51:21;100093.13;;;19.99;49.47
78123;BME280;67376;44.802;10.332;2023-04-24T03:53:48;100084.44;;;19.97;49.75
78123;BME280;67376;44.802;10.332;2023-04-24T03:56:13;100089.84;;;19.97;49.79
78123;BME280;67376;44.802;10.332;2023-04-24T03:58:38;100078.19;;;19.97;49.32
78123;BME280;67376;44.802;10.332;2023-04-24T04:01:04;100079.25;;;19.96;49.87
78123;BME280;67376;44.802;10.332;2023-04-24T04:03:30;100072.75;;;19.97;49.94
78123;BME280;67376;44.802;10.332;2023-04-24T04:05:56;100076.53;;;19.96;49.57
78123;BME280;67376;44.802;10.332;2023-04-24T04:08:21;100080.91;;;19.97;50.10
78123;BME280;67376;44.802;10.332;2023-04-24T04:10:46;100072.75;;;19.97;50.10
78123;BME280;67376;44.802;10.332;2023-04-24T04:13:12;100081.38;;;19.94;49.96
78123;BME280;67376;44.802;10.332;2023-04-24T04:15:37;100088.19;;;19.96;49.86
78123;BME280;67376;44.802;10.332;2023-04-24T04:18:03;100082.78;;;19.96;49.60
78123;BME280;67376;44.802;10.332;2023-04-24T04:20:28;100077.38;;;19.96;49.60
78123;BME280;67376;44.802;10.332;2023-04-24T04:22:54;100072.19;;;19.95;50.46
78123;BME280;67376;44.802;10.332;2023-04-24T04:25:19;100075.47;;;19.97;50.04
78123;BME280;67376;44.802;10.332;2023-04-24T04:27:45;100077.38;;;19.96;49.72
78123;BME280;67376;44.802;10.332;2023-04-24T04:30:13;100080.06;;;19.96;50.07
78123;BME280;67376;44.802;10.332;2023-04-24T04:32:38;100080.91;;;19.97;49.21
78123;BME280;67376;44.802;10.332;2023-04-24T04:35:04;100082.53;;;19.98;49.74
78123;BME280;67376;44.802;10.332;2023-04-24T04:37:31;100081.72;;;19.97;50.23
78123;BME280;67376;44.802;10.332;2023-04-24T04:39:57;100079.00;;;19.97;49.54
78123;BME280;67376;44.802;10.332;2023-04-24T04:42:24;100085.81;;;20.00;49.67
78123;BME280;67376;44.802;10.332;2023-04-24T04:44:49;100085.00;;;19.99;50.45
78123;BME280;67376;44.802;10.332;2023-04-24T04:47:15;100079.81;;;19.98;49.69
78123;BME280;67376;44.802;10.332;2023-04-24T04:49:42;100075.41;;;19.92;50.39
78123;BME280;67376;44.802;10.332;2023-04-24T04:52:08;100079.44;;;19.89;51.18
78123;BME280;67376;44.802;10.332;2023-04-24T04:54:33;100074.75;;;19.85;51.94
78123;BME280;67376;44.802;10.332;2023-04-24T04:56:59;100076.06;;;19.82;51.21
78123;BME280;67376;44.802;10.332;2023-04-24T04:59:25;100060.88;;;19.81;51.56
78123;BME280;67376;44.802;10.332;2023-04-24T05:01:51;100065.22;;;19.82;50.64
78123;BME280;67376;44.802;10.332;2023-04-24T05:04:16;100042.50;;;19.83;51.65
78123;BME280;67376;44.802;10.332;2023-04-24T05:06:41;100037.06;;;19.83;50.99
78123;BME280;67376;44.802;10.332;2023-04-24T05:09:07;100024.91;;;19.86;50.65
78123;BME280;67376;44.802;10.332;2023-04-24T05:11:32;100031.97;;;19.87;50.41
78123;BME280;67376;44.802;10.332;2023-04-24T05:13:58;100046.34;;;19.87;50.14
78123;BME280;67376;44.802;10.332;2023-04-24T05:16:23;100029.84;;;19.89;50.86
78123;BME280;67376;44.802;10.332;2023-04-24T05:18:48;100024.16;;;19.90;50.48
78123;BME280;67376;44.802;10.332;2023-04-24T05:21:14;100030.66;;;19.89;50.20
78123;BME280;67376;44.802;10.332;2023-04-24T05:23:39;100053.16;;;19.90;51.09
78123;BME280;67376;44.802;10.332;2023-04-24T05:26:05;100063.91;;;19.85;50.91
78123;BME280;67376;44.802;10.332;2023-04-24T05:28:30;100061.88;;;19.75;52.09
78123;BME280;67376;44.802;10.332;2023-04-24T05:30:56;100073.94;;;19.67;52.55
78123;BME280;67376;44.802;10.332;2023-04-24T05:33:21;100078.53;;;19.50;53.70
78123;BME280;67376;44.802;10.332;2023-04-24T05:35:48;100083.19;;;19.38;55.07
78123;BME280;67376;44.802;10.332;2023-04-24T05:38:14;100075.97;;;19.27;55.21
78123;BME280;67376;44.802;10.332;2023-04-24T05:40:40;100076.63;;;19.34;55.50
78123;BME280;67376;44.802;10.332;2023-04-24T05:43:05;100079.28;;;19.45;54.16
78123;BME280;67376;44.802;10.332;2023-04-24T05:45:30;100065.34;;;19.54;54.13
78123;BME280;67376;44.802;10.332;2023-04-24T05:47:57;100075.19;;;19.60;53.39
78123;BME280;67376;44.802;10.332;2023-04-24T05:50:22;100079.59;;;19.66;53.32
78123;BME280;67376;44.802;10.332;2023-04-24T05:52:47;100078.03;;;19.70;53.22
78123;BME280;67376;44.802;10.332;2023-04-24T05:55:13;100084.84;;;19.72;52.02
78123;BME280;67376;44.802;10.332;2023-04-24T05:57:38;100076.22;;;19.75;51.99
78123;BME280;67376;44.802;10.332;2023-04-24T06:00:06;100087.06;;;19.75;52.73
78123;BME280;67376;44.802;10.332;2023-04-24T06:02:32;100082.47;;;19.76;52.51
78123;BME280;67376;44.802;10.332;2023-04-24T06:04:58;100098.47;;;19.77;52.48
78123;BME280;67376;44.802;10.332;2023-04-24T06:07:25;100112.59;;;19.79;52.39
78123;BME280;67376;44.802;10.332;2023-04-24T06:09:53;100109.06;;;19.79;52.63
78123;BME280;67376;44.802;10.332;2023-04-24T06:12:19;100116.13;;;19.80;51.87
78123;BME280;67376;44.802;10.332;2023-04-24T06:14:45;100106.94;;;19.81;52.10
78123;BME280;67376;44.802;10.332;2023-04-24T06:17:10;100106.34;;;19.79;51.85
78123;BME280;67376;44.802;10.332;2023-04-24T06:19:35;100112.34;;;19.81;52.24
78123;BME280;67376;44.802;10.332;2023-04-24T06:22:01;100106.94;;;19.81;51.59
78123;BME280;67376;44.802;10.332;2023-04-24T06:24:29;100099.06;;;19.79;51.69
78123;BME280;67376;44.802;10.332;2023-04-24T06:26:55;100099.63;;;19.82;52.24
78123;BME280;67376;44.802;10.332;2023-04-24T06:29:22;100098.81;;;19.81;51.86
78123;BME280;67376;44.802;10.332;2023-04-24T06:31:47;100096.91;;;19.82;52.01
78123;BME280;67376;44.802;10.332;2023-04-24T06:34:13;100099.63;;;19.82;51.65
78123;BME280;67376;44.802;10.332;2023-04-24T06:36:38;100086.31;;;19.80;51.91
78123;BME280;67376;44.802;10.332;2023-04-24T06:39:04;100079.28;;;19.79;52.06
78123;BME280;67376;44.802;10.332;2023-04-24T06:41:29;100081.72;;;19.81;51.83
78123;BME280;67376;44.802;10.332;2023-04-24T06:43:55;100086.09;;;19.82;51.86
78123;BME280;67376;44.802;10.332;2023-04-24T06:46:20;100097.50;;;19.84;51.26
78123;BME280;67376;44.802;10.332;2023-04-24T06:48:49;100098.31;;;19.84;52.13
78123;BME280;67376;44.802;10.332;2023-04-24T06:51:15;100097.50;;;19.84;51.31
78123;BME280;67376;44.802;10.332;2023-04-24T06:53:42;100106.19;;;19.86;51.21
78123;BME280;67376;44.802;10.332;2023-04-24T06:56:08;100116.78;;;19.87;50.98
78123;BME280;67376;44.802;10.332;2023-04-24T06:58:33;100118.41;;;19.88;51.90
78123;BME280;67376;44.802;10.332;2023-04-24T07:00:58;100110.03;;;19.90;50.82
78123;BME280;67376;44.802;10.332;2023-04-24T07:03:24;100123.09;;;19.93;51.21
78123;BME280;67376;44.802;10.332;2023-04-24T07:05:49;100119.06;;;19.95;51.38
78123;BME280;67376;44.802;10.332;2023-04-24T07:08:15;100122.59;;;19.96;51.11
78123;BME280;67376;44.802;10.332;2023-04-24T07:10:42;100125.06;;;19.97;52.35
78123;BME280;67376;44.802;10.332;2023-04-24T07:13:08;100121.84;;;20.00;51.58
78123;BME280;67376;44.802;10.332;2023-04-24T07:15:33;100108.56;;;19.99;51.66
78123;BME280;67376;44.802;10.332;2023-04-24T07:17:59;100117.00;;;20.02;51.66
78123;BME280;67376;44.802;10.332;2023-04-24T07:20:25;100118.66;;;20.03;51.94
78123;BME280;67376;44.802;10.332;2023-04-24T07:22:51;100118.66;;;20.03;52.14
78123;BME280;67376;44.802;10.332;2023-04-24T07:25:17;100126.78;;;20.03;51.64
78123;BME280;67376;44.802;10.332;2023-04-24T07:27:42;100122.69;;;20.01;51.91
78123;BME280;67376;44.802;10.332;2023-04-24T07:30:08;100122.69;;;20.01;51.83
78123;BME280;67376;44.802;10.332;2023-04-24T07:32:34;100126.47;;;20.00;51.71
78123;BME280;67376;44.802;10.332;2023-04-24T07:35:00;100136.47;;;19.99;51.15
78123;BME280;67376;44.802;10.332;2023-04-24T07:37:25;100127.78;;;19.97;52.03
78123;BME280;67376;44.802;10.332;2023-04-24T07:39:51;100130.25;;;19.99;51.24
78123;BME280;67376;44.802;10.332;2023-04-24T07:42:16;100132.44;;;20.02;51.80
78123;BME280;67376;44.802;10.332;2023-04-24T07:44:42;100128.44;;;20.04;52.20
78123;BME280;67376;44.802;10.332;2023-04-24T07:47:07;100133.34;;;20.07;52.48
78123;BME280;67376;44.802;10.332;2023-04-24T07:49:33;100139.84;;;20.06;51.47
78123;BME280;67376;44.802;10.332;2023-04-24T07:52:00;100137.94;;;20.07;51.38
78123;BME280;67376;44.802;10.332;2023-04-24T07:54:27;100141.22;;;20.09;51.93
78123;BME280;67376;44.802;10.332;2023-04-24T07:56:53;100135.81;;;20.09;51.55
78123;BME280;67376;44.802;10.332;2023-04-24T07:59:19;100142.88;;;20.10;52.43
78123;BME280;67376;44.802;10.332;2023-04-24T08:01:44;100145.09;;;20.13;52.54
78123;BME280;67376;44.802;10.332;2023-04-24T08:04:09;100139.41;;;20.15;52.01
78123;BME280;67376;44.802;10.332;2023-04-24T08:06:35;100138.34;;;20.16;52.00
78123;BME280;67376;44.802;10.332;2023-04-24T08:09:00;100130.47;;;20.14;52.25
78123;BME280;67376;44.802;10.332;2023-04-24T08:11:26;100126.94;;;20.14;52.00
78123;BME280;67376;44.802;10.332;2023-04-24T08:13:52;100131.28;;;20.15;51.80
78123;BME280;67376;44.802;10.332;2023-04-24T08:16:17;100143.53;;;20.17;51.57
78123;BME280;67376;44.802;10.332;2023-04-24T08:18:43;100131.84;;;20.17;51.76
78123;BME280;67376;44.802;10.332;2023-04-24T08:21:08;100130.53;;;20.19;51.79
78123;BME280;67376;44.802;10.332;2023-04-24T08:23:34;100134.66;;;20.22;51.26
78123;BME280;67376;44.802;10.332;2023-04-24T08:25:59;100138.97;;;20.23;51.99
78123;BME280;67376;44.802;10.332;2023-04-24T08:28:24;100134.94;;;20.25;51.86
78123;BME280;67376;44.802;10.332;2023-04-24T08:30:50;100134.94;;;20.25;50.92
78123;BME280;67376;44.802;10.332;2023-04-24T08:33:22;100129.50;;;20.25;51.37
78123;BME280;67376;44.802;10.332;2023-04-24T08:35:48;100127.38;;;20.27;50.93
78123;BME280;67376;44.802;10.332;2023-04-24T08:38:13;100120.06;;;20.28;50.84
78123;BME280;67376;44.802;10.332;2023-04-24T08:40:38;100128.69;;;20.25;50.77
78123;BME280;67376;44.802;10.332;2023-04-24T08:43:05;100121.13;;;20.27;50.58
78123;BME280;67376;44.802;10.332;2023-04-24T08:45:30;100114.63;;;20.28;51.37
78123;BME280;67376;44.802;10.332;2023-04-24T08:47:57;100116.53;;;20.27;50.63
78123;BME280;67376;44.802;10.332;2023-04-24T08:50:24;100120.38;;;20.31;50.86
78123;BME280;67376;44.802;10.332;2023-04-24T08:52:50;100125.56;;;20.33;50.54
78123;BME280;67376;44.802;10.332;2023-04-24T08:55:19;100130.72;;;20.34;50.72
78123;BME280;67376;44.802;10.332;2023-04-24T08:57:46;100140.50;;;20.35;51.19
78123;BME280;67376;44.802;10.332;2023-04-24T09:00:15;100136.97;;;20.35;50.37
78123;BME280;67376;44.802;10.332;2023-04-24T09:02:42;100136.97;;;20.35;50.88
78123;BME280;67376;44.802;10.332;2023-04-24T09:05:09;100141.31;;;20.36;50.52
78123;BME280;67376;44.802;10.332;2023-04-24T09:07:36;100140.03;;;20.38;51.34
78123;BME280;67376;44.802;10.332;2023-04-24T09:10:04;100132.94;;;20.37;50.23
78123;BME280;67376;44.802;10.332;2023-04-24T09:12:32;100136.25;;;20.39;51.14
78123;BME280;67376;44.802;10.332;2023-04-24T09:15:00;100133.03;;;20.42;50.89
78123;BME280;67376;44.802;10.332;2023-04-24T09:17:25;100133.28;;;20.41;51.05
78123;BME280;67376;44.802;10.332;2023-04-24T09:19:53;100137.53;;;20.37;50.95
78123;BME280;67376;44.802;10.332;2023-04-24T09:22:19;100129.66;;;20.35;50.76
78123;BME280;67376;44.802;10.332;2023-04-24T09:24:45;100130.47;;;20.36;51.14
78123;BME280;67376;44.802;10.332;2023-04-24T09:27:11;100137.53;;;20.37;51.26
78123;BME280;67376;44.802;10.332;2023-04-24T09:29:37;100146.75;;;20.36;50.86
78123;BME280;67376;44.802;10.332;2023-04-24T09:32:19;100138.28;;;20.32;50.69
78123;BME280;67376;44.802;10.332;2023-04-24T09:34:47;100144.22;;;20.29;51.13
78123;BME280;67376;44.802;10.332;2023-04-24T09:37:27;100143.63;;;20.27;51.14
78123;BME280;67376;44.802;10.332;2023-04-24T09:40:28;100135.25;;;20.29;51.58
78123;BME280;67376;44.802;10.332;2023-04-24T09:42:57;100131.22;;;20.31;50.66
78123;BME280;67376;44.802;10.332;2023-04-24T09:45:35;100127.75;;;20.36;51.33
78123;BME280;67376;44.802;10.332;2023-04-24T09:48:01;100133.19;;;20.36;50.35
78123;BME280;67376;44.802;10.332;2023-04-24T09:50:26;100138.38;;;20.37;51.08
78123;BME280;67376;44.802;10.332;2023-04-24T09:52:59;100138.16;;;20.39;50.69
78123;BME280;67376;44.802;10.332;2023-04-24T09:55:26;100141.31;;;20.36;50.82
78123;BME280;67376;44.802;10.332;2023-04-24T09:57:56;100148.56;;;20.30;50.81
78123;BME280;67376;44.802;10.332;2023-04-24T10:00:23;100145.53;;;20.27;51.09
78123;BME280;67376;44.802;10.332;2023-04-24T10:02:55;100144.22;;;20.29;50.76
78123;BME280;67376;44.802;10.332;2023-04-24T10:05:30;100130.72;;;20.34;51.19
78123;BME280;67376;44.802;10.332;2023-04-24T10:07:56;100130.72;;;20.34;51.00
78123;BME280;67376;44.802;10.332;2023-04-24T10:10:22;100140.19;;;20.32;50.73
78123;BME280;67376;44.802;10.332;2023-04-24T10:12:48;100132.38;;;20.35;50.65
78123;BME280;67376;44.802;10.332;2023-04-24T10:15:15;100136.16;;;20.34;51.01
78123;BME280;67376;44.802;10.332;2023-04-24T10:17:44;100139.38;;;20.31;50.27
78123;BME280;67376;44.802;10.332;2023-04-24T10:20:10;100146.34;;;20.27;50.94
78123;BME280;67376;44.802;10.332;2023-04-24T10:22:36;100139.63;;;20.30;50.22
78123;BME280;67376;44.802;10.332;2023-04-24T10:25:04;100133.94;;;20.31;50.95
78123;BME280;67376;44.802;10.332;2023-04-24T10:27:31;100147.50;;;20.31;51.02
78123;BME280;67376;44.802;10.332;2023-04-24T10:29:57;100134.50;;;20.33;50.49
78123;BME280;67376;44.802;10.332;2023-04-24T10:32:23;100144.53;;;20.33;51.04
78123;BME280;67376;44.802;10.332;2023-04-24T10:34:49;100139.63;;;20.30;50.97
78123;BME280;67376;44.802;10.332;2023-04-24T10:37:14;100133.13;;;20.31;50.41
78123;BME280;67376;44.802;10.332;2023-04-24T10:39:40;100140.44;;;20.30;49.99
78123;BME280;67376;44.802;10.332;2023-04-24T10:42:15;100133.63;;;20.28;49.94
78123;BME280;67376;44.802;10.332;2023-04-24T10:44:41;100136.31;;;20.28;50.86
78123;BME280;67376;44.802;10.332;2023-04-24T10:47:13;100135.25;;;20.29;50.48
78123;BME280;67376;44.802;10.332;2023-04-24T10:49:39;100135.25;;;20.29;49.85
78123;BME280;67376;44.802;10.332;2023-04-24T10:52:05;100132.53;;;20.29;50.77
78123;BME280;67376;44.802;10.332;2023-04-24T10:54:46;100138.53;;;20.31;50.29
78123;BME280;67376;44.802;10.332;2023-04-24T10:59:48;100133.94;;;20.31;50.61
78123;BME280;67376;44.802;10.332;2023-04-24T11:02:17;100140.44;;;20.30;50.18
78123;BME280;67376;44.802;10.332;2023-04-24T11:04:43;100140.44;;;20.30;49.94
78123;BME280;67376;44.802;10.332;2023-04-24T11:07:10;100133.13;;;20.31;49.77
78123;BME280;67376;44.802;10.332;2023-04-24T11:09:36;100133.94;;;20.31;50.07
78123;BME280;67376;44.802;10.332;2023-04-24T11:12:10;100135.84;;;20.31;50.19
78123;BME280;67376;44.802;10.332;2023-04-24T11:17:36;100131.72;;;20.28;49.93
78123;BME280;67376;44.802;10.332;2023-04-24T11:20:17;100123.03;;;20.26;49.69
78123;BME280;67376;44.802;10.332;2023-04-24T11:22:42;100122.78;;;20.28;49.73
78123;BME280;67376;44.802;10.332;2023-04-24T11:25:09;100112.19;;;20.26;49.73
78123;BME280;67376;44.802;10.332;2023-04-24T11:27:41;100103.22;;;20.26;50.32
78123;BME280;67376;44.802;10.332;2023-04-24T11:30:08;100108.41;;;20.27;50.32
78123;BME280;67376;44.802;10.332;2023-04-24T11:32:37;100111.94;;;20.28;49.86
78123;BME280;67376;44.802;10.332;2023-04-24T11:37:48;100096.16;;;20.25;50.17
78123;BME280;67376;44.802;10.332;2023-04-24T11:40:18;100111.34;;;20.26;49.80
78123;BME280;67376;44.802;10.332;2023-04-24T11:42:49;100100.53;;;20.26;50.01
78123;BME280;67376;44.802;10.332;2023-04-24T11:45:20;100098.06;;;20.24;50.04
78123;BME280;67376;44.802;10.332;2023-04-24T11:47:46;100099.13;;;20.23;49.89
78123;BME280;67376;44.802;10.332;2023-04-24T11:50:16;100099.94;;;20.24;50.48
78123;BME280;67376;44.802;10.332;2023-04-24T11:52:46;100106.44;;;20.23;50.28
78123;BME280;67376;44.802;10.332;2023-04-24T11:57:42;100099.94;;;20.24;49.90
78123;BME280;67376;44.802;10.332;2023-04-24T12:00:15;100091.00;;;20.23;50.47
78123;BME280;67376;44.802;10.332;2023-04-24T12:02:41;100092.88;;;20.23;50.16
78123;BME280;67376;44.802;10.332;2023-04-24T12:05:07;100087.22;;;20.24;50.22
78123;BME280;67376;44.802;10.332;2023-04-24T12:07:40;100089.09;;;20.24;49.83
78123;BME280;67376;44.802;10.332;2023-04-24T12:10:08;100084.75;;;20.23;49.84
78123;BME280;67376;44.802;10.332;2023-04-24T12:12:34;100088.28;;;20.23;49.65
78123;BME280;67376;44.802;10.332;2023-04-24T12:15:01;100092.88;;;20.23;49.62
78123;BME280;67376;44.802;10.332;2023-04-24T12:17:33;100093.44;;;20.25;49.75
78123;BME280;67376;44.802;10.332;2023-04-24T12:20:03;100081.78;;;20.24;49.29
78123;BME280;67376;44.802;10.332;2023-04-24T12:25:10;100077.19;;;20.25;50.34
78123;BME280;67376;44.802;10.332;2023-04-24T12:27:35;100071.78;;;20.25;49.43
78123;BME280;67376;44.802;10.332;2023-04-24T12:30:04;100078.59;;;20.27;50.15
78123;BME280;67376;44.802;10.332;2023-04-24T12:32:30;100080.47;;;20.27;49.12
78123;BME280;67376;44.802;10.332;2023-04-24T12:34:56;100082.38;;;20.26;49.52
78123;BME280;67376;44.802;10.332;2023-04-24T12:37:26;100081.53;;;20.26;49.32
78123;BME280;67376;44.802;10.332;2023-04-24T12:40:02;100064.53;;;20.30;48.86
78123;BME280;67376;44.802;10.332;2023-04-24T12:42:29;100064.59;;;20.35;49.50
78123;BME280;67376;44.802;10.332;2023-04-24T12:45:06;100067.66;;;20.39;48.86
78123;BME280;67376;44.802;10.332;2023-04-24T12:47:33;100065.41;;;20.36;48.60
78123;BME280;67376;44.802;10.332;2023-04-24T12:49:59;100061.88;;;20.35;48.71